NCAR-RAP Real-Time Weather Data

Output produced by METARs form (28 August 2016  08:36 UTC)
found at http://weather.rap.ucar.edu/surface/
 
Conditions at: KALB observed 28 August 2016  08:03 UTC
Temperature: 18.9°C (66°F)
Dewpoint: 17.8°C (64°F) [RH = 93%]
Pressure (altimeter): 30.20 inches Hg (1022.8 mb)
Winds: calm
Visibility: 10 or more miles (16+ km)
Ceiling: at least 12,000 feet AGL
Clouds: scattered clouds at 300 feet AGL
Present Weather: BCFG  (patches of fog)
KALB 280803Z COR 00000KT 10SM BCFG SCT003 19/18 A3020 RMK AO2 BCFG SW-NW-NE T01890178

Conditions at: KALB observed 28 August 2016  07:51 UTC
Temperature: 18.9°C (66°F)
Dewpoint: 17.8°C (64°F) [RH = 93%]
Pressure (altimeter): 30.20 inches Hg (1022.8 mb)
[Sea-level pressure: 1022.6 mb]
Winds: calm
Visibility: 10 or more miles (16+ km)
Ceiling: at least 12,000 feet AGL
Clouds: few clouds at 6000 feet AGL
Present Weather: BCFG  (patches of fog)
KALB 280751Z 00000KT 10SM BCFG FEW060 19/18 A3020 RMK AO2 SLP226 BCFG NW-N MIFG SW-W T01890178

Conditions at: KALB observed 28 August 2016  06:51 UTC
Temperature: 18.9°C (66°F)
Dewpoint: 17.2°C (63°F) [RH = 90%]
Pressure (altimeter): 30.20 inches Hg (1022.8 mb)
[Sea-level pressure: 1022.6 mb]
Winds: calm
Visibility: 10 or more miles (16+ km)
Ceiling: at least 12,000 feet AGL
Clouds: few clouds at 6000 feet AGL
Present Weather: MIFG  (shallow fog)
KALB 280651Z 00000KT 10SM MIFG FEW060 19/17 A3020 RMK AO2 SLP226 MIFG SW T01890172

Conditions at: KALB observed 28 August 2016  05:51 UTC
Temperature: 20.0°C (68°F)
Dewpoint: 18.9°C (66°F) [RH = 93%]
Pressure (altimeter): 30.21 inches Hg (1023.1 mb)
[Sea-level pressure: 1022.8 mb]
Winds: calm
Visibility: 10 or more miles (16+ km)
Ceiling: at least 12,000 feet AGL
Clouds: few clouds at 6000 feet AGL
Present Weather: no significant weather observed at this time
KALB 280551Z 00000KT 10SM FEW060 20/19 A3021 RMK AO2 SLP228 T02000189 10256 20200 57001

Conditions at: KALB observed 28 August 2016  04:51 UTC
Temperature: 20.6°C (69°F)
Dewpoint: 18.9°C (66°F) [RH = 90%]
Pressure (altimeter): 30.21 inches Hg (1023.1 mb)
[Sea-level pressure: 1022.9 mb]
Winds: calm
Visibility: 10 or more miles (16+ km)
Ceiling: at least 12,000 feet AGL
Clouds: few clouds at 6000 feet AGL
Present Weather: no significant weather observed at this time
KALB 280451Z 00000KT 10SM FEW060 21/19 A3021 RMK AO2 SLP229 T02060189 403000167

Conditions at: KALB observed 28 August 2016  03:51 UTC
Temperature: 21.7°C (71°F)
Dewpoint: 18.9°C (66°F) [RH = 84%]
Pressure (altimeter): 30.21 inches Hg (1023.1 mb)
[Sea-level pressure: 1022.8 mb]
Winds: calm
Visibility: 10 or more miles (16+ km)
Ceiling: at least 12,000 feet AGL
Clouds: few clouds at 6000 feet AGL
Present Weather: no significant weather observed at this time
KALB 280351Z COR 00000KT 10SM FEW060 22/19 A3021 RMK AO2 SLP228 T02170189

Conditions at: KALB observed 28 August 2016  02:51 UTC
Temperature: 22.2°C (72°F)
Dewpoint: 20.0°C (68°F) [RH = 87%]
Pressure (altimeter): 30.21 inches Hg (1023.1 mb)
[Sea-level pressure: 1022.9 mb]
Winds: from the NW (320 degrees) at 3 MPH (3 knots; 1.6 m/s)
Visibility: 10 or more miles (16+ km)
Ceiling: 6000 feet AGL
Clouds: broken clouds at 6000 feet AGL
Present Weather: no significant weather observed at this time
KALB 280251Z 32003KT 10SM BKN060 22/20 A3021 RMK AO2 SLP229 T02220200 51011

Conditions at: KALB observed 28 August 2016  01:51 UTC
Temperature: 22.8°C (73°F)
Dewpoint: 18.9°C (66°F) [RH = 79%]
Pressure (altimeter): 30.21 inches Hg (1023.1 mb)
[Sea-level pressure: 1022.8 mb]
Winds: calm
Visibility: 10 or more miles (16+ km)
Ceiling: at least 12,000 feet AGL
Clouds: scattered clouds at 6000 feet AGL
scattered clouds at 26000 feet AGL
Present Weather: no significant weather observed at this time
KALB 280151Z COR 00000KT 10SM SCT060 SCT260 23/19 A3021 RMK AO2 SLP228 T02280189

Conditions at: KALB observed 28 August 2016  00:51 UTC
Temperature: 22.8°C (73°F)
Dewpoint: 18.9°C (66°F) [RH = 79%]
Pressure (altimeter): 30.20 inches Hg (1022.8 mb)
[Sea-level pressure: 1022.6 mb]
Winds: calm
Visibility: 10 or more miles (16+ km)
Ceiling: at least 12,000 feet AGL
Clouds: few clouds at 5500 feet AGL
few clouds at 26000 feet AGL
Present Weather: no significant weather observed at this time
KALB 280051Z 00000KT 10SM FEW055 FEW260 23/19 A3020 RMK AO2 SLP226 T02280189

Conditions at: KALB observed 27 August 2016  23:51 UTC
Temperature: 25.0°C (77°F)
Dewpoint: 18.3°C (65°F) [RH = 66%]
Pressure (altimeter): 30.18 inches Hg (1022.1 mb)
[Sea-level pressure: 1021.8 mb]
Winds: calm
Visibility: 10 or more miles (16+ km)
Ceiling: at least 12,000 feet AGL
Clouds: few clouds at 5500 feet AGL
few clouds at 26000 feet AGL
Present Weather: no significant weather observed at this time
KALB 272351Z 00000KT 10SM FEW055 FEW260 25/18 A3018 RMK AO2 SLP218 T02500183 10300 20244 53005

Conditions at: KALB observed 27 August 2016  22:51 UTC
Temperature: 27.8°C (82°F)
Dewpoint: 17.2°C (63°F) [RH = 53%]
Pressure (altimeter): 30.16 inches Hg (1021.4 mb)
[Sea-level pressure: 1021.3 mb]
Winds: from the ESE (120 degrees) at 3 MPH (3 knots; 1.6 m/s)
Visibility: 10 or more miles (16+ km)
Ceiling: at least 12,000 feet AGL
Clouds: few clouds at 5500 feet AGL
few clouds at 26000 feet AGL
Present Weather: no significant weather observed at this time
KALB 272251Z 12003KT 10SM FEW055 FEW260 28/17 A3016 RMK AO2 SLP213 T02780172

Conditions at: KALB observed 27 August 2016  21:51 UTC
Temperature: 28.9°C (84°F)
Dewpoint: 16.7°C (62°F) [RH = 48%]
Pressure (altimeter): 30.16 inches Hg (1021.4 mb)
[Sea-level pressure: 1021.2 mb]
Winds: variable direction winds at 3 MPH (3 knots; 1.6 m/s)
Visibility: 10 or more miles (16+ km)
Ceiling: at least 12,000 feet AGL
Clouds: few clouds at 5500 feet AGL
few clouds at 26000 feet AGL
Present Weather: no significant weather observed at this time
KALB 272151Z VRB03KT 10SM FEW055 FEW260 29/17 A3016 RMK AO2 SLP212 T02890167

Conditions at: KALB observed 27 August 2016  20:51 UTC
Temperature: 30.0°C (86°F)
Dewpoint: 16.7°C (62°F) [RH = 45%]
Pressure (altimeter): 30.16 inches Hg (1021.4 mb)
[Sea-level pressure: 1021.3 mb]
Winds: from the ENE (60 degrees) at 5 MPH (4 knots; 2.1 m/s)
Visibility: 10 or more miles (16+ km)
Ceiling: at least 12,000 feet AGL
Clouds: few clouds at 5500 feet AGL
few clouds at 26000 feet AGL
Present Weather: no significant weather observed at this time
KALB 272051Z 06004KT 10SM FEW055 FEW260 30/17 A3016 RMK AO2 SLP213 T03000167 56006